sensor_id;sensor_type;location;lat;lon;timestamp;temperature;humidity
64843;DHT22;51310;52.198;5.422;2022-09-03T00:00:17;17.70;29.30
64843;DHT22;51310;52.198;5.422;2022-09-03T00:06:24;17.70;29.20
64843;DHT22;51310;52.198;5.422;2022-09-03T00:09:02;17.70;29.40
64843;DHT22;51310;52.198;5.422;2022-09-03T00:11:57;17.60;29.70
64843;DHT22;51310;52.198;5.422;2022-09-03T00:17:33;17.50;30.00
64843;DHT22;51310;52.198;5.422;2022-09-03T00:20:30;17.50;30.00
64843;DHT22;51310;52.198;5.422;2022-09-03T00:23:06;17.50;29.90
64843;DHT22;51310;52.198;5.422;2022-09-03T00:26:13;17.50;30.00
64843;DHT22;51310;52.198;5.422;2022-09-03T00:29:00;17.40;30.10
64843;DHT22;51310;52.198;5.422;2022-09-03T00:31:39;17.40;30.50
64843;DHT22;51310;52.198;5.422;2022-09-03T00:34:31;17.30;30.60
64843;DHT22;51310;52.198;5.422;2022-09-03T00:37:03;17.30;30.80
64843;DHT22;51310;52.198;5.422;2022-09-03T00:39:29;17.20;30.80
64843;DHT22;51310;52.198;5.422;2022-09-03T00:45:40;17.20;31.00
64843;DHT22;51310;52.198;5.422;2022-09-03T00:48:26;15.50;30.00
64843;DHT22;51310;52.198;5.422;2022-09-03T00:54:33;17.10;31.30
64843;DHT22;51310;52.198;5.422;2022-09-03T01:00:33;17.10;31.30
64843;DHT22;51310;52.198;5.422;2022-09-03T01:03:06;17.10;31.40
64843;DHT22;51310;52.198;5.422;2022-09-03T01:06:09;17.10;31.30
64843;DHT22;51310;52.198;5.422;2022-09-03T01:11:57;17.00;31.60
64843;DHT22;51310;52.198;5.422;2022-09-03T01:15:12;17.00;31.50
64843;DHT22;51310;52.198;5.422;2022-09-03T01:21:16;16.90;31.90
64843;DHT22;51310;52.198;5.422;2022-09-03T01:30:17;16.80;32.30
64843;DHT22;51310;52.198;5.422;2022-09-03T01:33:00;16.80;32.30
64843;DHT22;51310;52.198;5.422;2022-09-03T01:35:51;16.80;32.40
64843;DHT22;51310;52.198;5.422;2022-09-03T01:38:51;16.70;32.60
64843;DHT22;51310;52.198;5.422;2022-09-03T01:41:38;16.60;33.00
64843;DHT22;51310;52.198;5.422;2022-09-03T01:51:10;16.60;33.00
64843;DHT22;51310;52.198;5.422;2022-09-03T01:54:36;16.60;33.10
64843;DHT22;51310;52.198;5.422;2022-09-03T02:00:24;16.60;33.10
64843;DHT22;51310;52.198;5.422;2022-09-03T02:02:52;16.50;33.10
64843;DHT22;51310;52.198;5.422;2022-09-03T02:05:21;16.50;33.60
64843;DHT22;51310;52.198;5.422;2022-09-03T02:08:05;16.50;33.40
64843;DHT22;51310;52.198;5.422;2022-09-03T02:10:51;16.50;33.60
64843;DHT22;51310;52.198;5.422;2022-09-03T02:13:30;16.50;33.40
64843;DHT22;51310;52.198;5.422;2022-09-03T02:16:26;16.50;33.50
64843;DHT22;51310;52.198;5.422;2022-09-03T02:19:03;16.50;33.50
64843;DHT22;51310;52.198;5.422;2022-09-03T02:21:38;16.50;33.40
64843;DHT22;51310;52.198;5.422;2022-09-03T02:24:10;16.50;33.50
64843;DHT22;51310;52.198;5.422;2022-09-03T02:26:36;16.50;33.50
64843;DHT22;51310;52.198;5.422;2022-09-03T02:29:03;16.50;33.60
64843;DHT22;51310;52.198;5.422;2022-09-03T02:31:29;16.50;33.70
64843;DHT22;51310;52.198;5.422;2022-09-03T02:33:56;16.40;34.00
64843;DHT22;51310;52.198;5.422;2022-09-03T02:36:32;16.30;34.20
64843;DHT22;51310;52.198;5.422;2022-09-03T02:39:04;16.30;34.30
64843;DHT22;51310;52.198;5.422;2022-09-03T02:41:31;16.20;34.20
64843;DHT22;51310;52.198;5.422;2022-09-03T02:46:56;16.30;34.30
64843;DHT22;51310;52.198;5.422;2022-09-03T02:49:28;16.20;34.40
64843;DHT22;51310;52.198;5.422;2022-09-03T02:52:00;16.30;34.40
64843;DHT22;51310;52.198;5.422;2022-09-03T02:54:34;16.20;34.10
64843;DHT22;51310;52.198;5.422;2022-09-03T02:57:05;16.20;34.30
64843;DHT22;51310;52.198;5.422;2022-09-03T02:59:33;16.20;34.40
64843;DHT22;51310;52.198;5.422;2022-09-03T03:02:00;16.20;34.50
64843;DHT22;51310;52.198;5.422;2022-09-03T03:04:28;16.20;34.40
64843;DHT22;51310;52.198;5.422;2022-09-03T03:06:55;16.20;34.30
64843;DHT22;51310;52.198;5.422;2022-09-03T03:09:21;16.20;34.20
64843;DHT22;51310;52.198;5.422;2022-09-03T03:11:47;16.20;34.60
64843;DHT22;51310;52.198;5.422;2022-09-03T03:14:15;16.20;34.30
64843;DHT22;51310;52.198;5.422;2022-09-03T03:16:43;16.20;34.60
64843;DHT22;51310;52.198;5.422;2022-09-03T03:19:09;16.20;34.30
64843;DHT22;51310;52.198;5.422;2022-09-03T03:21:35;16.20;34.40
64843;DHT22;51310;52.198;5.422;2022-09-03T03:24:01;16.10;34.70
64843;DHT22;51310;52.198;5.422;2022-09-03T03:26:28;16.10;34.90
64843;DHT22;51310;52.198;5.422;2022-09-03T03:28:58;16.00;35.20
64843;DHT22;51310;52.198;5.422;2022-09-03T03:31:25;16.10;35.00
64843;DHT22;51310;52.198;5.422;2022-09-03T03:33:54;16.00;35.30
64843;DHT22;51310;52.198;5.422;2022-09-03T03:36:28;17.40;36.10
64843;DHT22;51310;52.198;5.422;2022-09-03T03:38:58;15.90;35.50
64843;DHT22;51310;52.198;5.422;2022-09-03T03:41:30;15.90;35.90
64843;DHT22;51310;52.198;5.422;2022-09-03T03:44:04;15.90;35.40
64843;DHT22;51310;52.198;5.422;2022-09-03T03:46:37;15.80;35.80
64843;DHT22;51310;52.198;5.422;2022-09-03T03:49:07;15.80;36.20
64843;DHT22;51310;52.198;5.422;2022-09-03T03:51:34;15.80;36.10
64843;DHT22;51310;52.198;5.422;2022-09-03T03:54:01;15.70;36.10
64843;DHT22;51310;52.198;5.422;2022-09-03T03:56:27;15.70;36.20
64843;DHT22;51310;52.198;5.422;2022-09-03T03:58:53;15.70;36.50
64843;DHT22;51310;52.198;5.422;2022-09-03T04:01:22;15.70;36.30
64843;DHT22;51310;52.198;5.422;2022-09-03T04:03:50;15.70;36.30
64843;DHT22;51310;52.198;5.422;2022-09-03T04:06:20;15.60;36.70
64843;DHT22;51310;52.198;5.422;2022-09-03T04:08:47;15.60;36.80
64843;DHT22;51310;52.198;5.422;2022-09-03T04:13:46;15.60;37.10
64843;DHT22;51310;52.198;5.422;2022-09-03T04:16:15;15.50;37.10
64843;DHT22;51310;52.198;5.422;2022-09-03T04:18:45;15.50;37.20
64843;DHT22;51310;52.198;5.422;2022-09-03T04:21:16;15.40;37.60
64843;DHT22;51310;52.198;5.422;2022-09-03T04:23:46;15.40;37.60
64843;DHT22;51310;52.198;5.422;2022-09-03T04:26:19;15.40;37.80
64843;DHT22;51310;52.198;5.422;2022-09-03T04:28:49;15.40;37.90
64843;DHT22;51310;52.198;5.422;2022-09-03T04:31:17;15.30;38.00
64843;DHT22;51310;52.198;5.422;2022-09-03T04:33:44;15.30;38.30
64843;DHT22;51310;52.198;5.422;2022-09-03T04:38:42;15.30;38.60
64843;DHT22;51310;52.198;5.422;2022-09-03T04:41:12;15.30;39.00
64843;DHT22;51310;52.198;5.422;2022-09-03T04:43:41;15.30;38.60
64843;DHT22;51310;52.198;5.422;2022-09-03T04:46:10;15.30;38.60
64843;DHT22;51310;52.198;5.422;2022-09-03T04:48:38;15.30;38.60
64843;DHT22;51310;52.198;5.422;2022-09-03T04:53:42;15.30;38.50
64843;DHT22;51310;52.198;5.422;2022-09-03T04:56:14;15.30;38.40
64843;DHT22;51310;52.198;5.422;2022-09-03T04:58:44;15.30;38.50
64843;DHT22;51310;52.198;5.422;2022-09-03T05:01:14;15.30;38.70
64843;DHT22;51310;52.198;5.422;2022-09-03T05:03:45;15.30;38.40
64843;DHT22;51310;52.198;5.422;2022-09-03T05:06:12;15.40;38.20
64843;DHT22;51310;52.198;5.422;2022-09-03T05:08:41;15.40;38.30
64843;DHT22;51310;52.198;5.422;2022-09-03T05:11:08;15.30;38.50
64843;DHT22;51310;52.198;5.422;2022-09-03T05:13:34;15.30;38.50
64843;DHT22;51310;52.198;5.422;2022-09-03T05:16:09;15.30;38.60
64843;DHT22;51310;52.198;5.422;2022-09-03T05:18:37;15.30;38.90
64843;DHT22;51310;52.198;5.422;2022-09-03T05:21:06;15.20;39.00
64843;DHT22;51310;52.198;5.422;2022-09-03T05:23:36;15.30;38.70
64843;DHT22;51310;52.198;5.422;2022-09-03T05:26:15;15.20;38.80
64843;DHT22;51310;52.198;5.422;2022-09-03T05:29:03;15.20;38.90
64843;DHT22;51310;52.198;5.422;2022-09-03T05:31:36;15.30;38.70
64843;DHT22;51310;52.198;5.422;2022-09-03T05:34:04;15.40;38.70
64843;DHT22;51310;52.198;5.422;2022-09-03T05:36:33;15.40;38.50
64843;DHT22;51310;52.198;5.422;2022-09-03T05:39:03;15.40;38.50
64843;DHT22;51310;52.198;5.422;2022-09-03T05:41:30;15.50;38.70
64843;DHT22;51310;52.198;5.422;2022-09-03T05:43:58;15.50;38.50
64843;DHT22;51310;52.198;5.422;2022-09-03T05:46:29;15.60;38.10
64843;DHT22;51310;52.198;5.422;2022-09-03T05:48:59;15.70;37.80
64843;DHT22;51310;52.198;5.422;2022-09-03T05:51:27;15.70;38.10
64843;DHT22;51310;52.198;5.422;2022-09-03T05:53:54;15.70;38.10
64843;DHT22;51310;52.198;5.422;2022-09-03T05:56:22;15.70;38.10
64843;DHT22;51310;52.198;5.422;2022-09-03T05:58:52;15.70;37.90
64843;DHT22;51310;52.198;5.422;2022-09-03T06:01:25;15.70;38.00
64843;DHT22;51310;52.198;5.422;2022-09-03T06:04:31;15.70;37.70
64843;DHT22;51310;52.198;5.422;2022-09-03T06:06:50;15.80;37.80
64843;DHT22;51310;52.198;5.422;2022-09-03T06:09:19;15.70;38.10
64843;DHT22;51310;52.198;5.422;2022-09-03T06:11:47;15.70;38.00
64843;DHT22;51310;52.198;5.422;2022-09-03T06:14:16;15.80;38.00
64843;DHT22;51310;52.198;5.422;2022-09-03T06:16:45;15.70;38.20
64843;DHT22;51310;52.198;5.422;2022-09-03T06:19:17;15.80;38.60
64843;DHT22;51310;52.198;5.422;2022-09-03T06:21:45;15.90;38.20
64843;DHT22;51310;52.198;5.422;2022-09-03T06:24:19;15.90;38.10
64843;DHT22;51310;52.198;5.422;2022-09-03T06:26:47;16.00;38.00
64843;DHT22;51310;52.198;5.422;2022-09-03T06:29:13;16.00;37.90
64843;DHT22;51310;52.198;5.422;2022-09-03T06:31:40;16.10;38.20
64843;DHT22;51310;52.198;5.422;2022-09-03T06:34:06;16.10;38.10
64843;DHT22;51310;52.198;5.422;2022-09-03T06:36:32;16.20;38.10
64843;DHT22;51310;52.198;5.422;2022-09-03T06:38:58;16.30;38.40
64843;DHT22;51310;52.198;5.422;2022-09-03T06:41:29;16.40;38.20
64843;DHT22;51310;52.198;5.422;2022-09-03T06:44:04;16.50;38.60
64843;DHT22;51310;52.198;5.422;2022-09-03T06:46:37;16.60;37.80
64843;DHT22;51310;52.198;5.422;2022-09-03T06:49:06;16.80;38.40
64843;DHT22;51310;52.198;5.422;2022-09-03T06:51:33;16.90;37.70
64843;DHT22;51310;52.198;5.422;2022-09-03T06:54:04;16.90;40.50
64843;DHT22;51310;52.198;5.422;2022-09-03T06:56:34;17.00;37.10
64843;DHT22;51310;52.198;5.422;2022-09-03T06:59:06;17.20;37.20
64843;DHT22;51310;52.198;5.422;2022-09-03T07:01:37;17.20;36.70
64843;DHT22;51310;52.198;5.422;2022-09-03T07:04:05;17.40;35.80
64843;DHT22;51310;52.198;5.422;2022-09-03T07:06:35;17.40;36.10
64843;DHT22;51310;52.198;5.422;2022-09-03T07:09:08;17.40;35.60
64843;DHT22;51310;52.198;5.422;2022-09-03T07:11:36;17.40;35.40
64843;DHT22;51310;52.198;5.422;2022-09-03T07:14:10;17.60;36.20
64843;DHT22;51310;52.198;5.422;2022-09-03T07:16:36;17.70;35.70
64843;DHT22;51310;52.198;5.422;2022-09-03T07:19:03;17.70;34.90
64843;DHT22;51310;52.198;5.422;2022-09-03T07:21:32;17.80;34.40
64843;DHT22;51310;52.198;5.422;2022-09-03T07:24:01;17.80;34.10
64843;DHT22;51310;52.198;5.422;2022-09-03T07:26:31;17.80;33.80
64843;DHT22;51310;52.198;5.422;2022-09-03T07:31:29;18.00;33.90
64843;DHT22;51310;52.198;5.422;2022-09-03T07:34:00;18.00;33.50
64843;DHT22;51310;52.198;5.422;2022-09-03T07:36:37;18.10;34.00
64843;DHT22;51310;52.198;5.422;2022-09-03T07:41:38;18.20;32.70
64843;DHT22;51310;52.198;5.422;2022-09-03T07:44:08;18.30;33.40
64843;DHT22;51310;52.198;5.422;2022-09-03T07:46:35;16.10;32.10
64843;DHT22;51310;52.198;5.422;2022-09-03T07:49:03;18.60;33.80
64843;DHT22;51310;52.198;5.422;2022-09-03T07:51:32;18.80;32.20
64843;DHT22;51310;52.198;5.422;2022-09-03T07:54:03;18.80;32.50
64843;DHT22;51310;52.198;5.422;2022-09-03T07:56:32;18.90;30.80
64843;DHT22;51310;52.198;5.422;2022-09-03T07:59:00;19.00;31.60
64843;DHT22;51310;52.198;5.422;2022-09-03T08:01:28;19.10;31.20
64843;DHT22;51310;52.198;5.422;2022-09-03T08:03:56;19.10;31.40
64843;DHT22;51310;52.198;5.422;2022-09-03T08:06:23;19.10;30.70
64843;DHT22;51310;52.198;5.422;2022-09-03T08:08:59;19.20;30.90
64843;DHT22;51310;52.198;5.422;2022-09-03T08:11:28;19.50;32.10
64843;DHT22;51310;52.198;5.422;2022-09-03T08:16:35;19.70;31.10
64843;DHT22;51310;52.198;5.422;2022-09-03T08:19:07;19.80;29.70
64843;DHT22;51310;52.198;5.422;2022-09-03T08:21:35;19.80;29.30
64843;DHT22;51310;52.198;5.422;2022-09-03T08:24:01;19.80;29.70
64843;DHT22;51310;52.198;5.422;2022-09-03T08:26:29;19.90;29.80
64843;DHT22;51310;52.198;5.422;2022-09-03T08:29:01;20.00;29.00
64843;DHT22;51310;52.198;5.422;2022-09-03T08:31:29;20.00;29.70
64843;DHT22;51310;52.198;5.422;2022-09-03T08:33:58;20.00;29.10
64843;DHT22;51310;52.198;5.422;2022-09-03T08:36:35;20.20;29.10
64843;DHT22;51310;52.198;5.422;2022-09-03T08:39:05;20.10;29.80
64843;DHT22;51310;52.198;5.422;2022-09-03T08:44:29;20.50;28.30
64843;DHT22;51310;52.198;5.422;2022-09-03T08:47:29;20.50;27.90
64843;DHT22;51310;52.198;5.422;2022-09-03T08:55:41;20.80;27.70
64843;DHT22;51310;52.198;5.422;2022-09-03T08:58:18;20.90;27.90
64843;DHT22;51310;52.198;5.422;2022-09-03T09:01:00;21.00;27.80
64843;DHT22;51310;52.198;5.422;2022-09-03T09:07:10;21.00;27.20
64843;DHT22;51310;52.198;5.422;2022-09-03T09:09:50;21.20;27.10
64843;DHT22;51310;52.198;5.422;2022-09-03T09:12:42;21.20;27.00
64843;DHT22;51310;52.198;5.422;2022-09-03T09:15:55;21.40;28.30
64843;DHT22;51310;52.198;5.422;2022-09-03T09:18:59;21.50;27.50
64843;DHT22;51310;52.198;5.422;2022-09-03T09:21:45;21.60;26.50
64843;DHT22;51310;52.198;5.422;2022-09-03T09:24:21;21.70;26.40
64843;DHT22;51310;52.198;5.422;2022-09-03T09:26:57;21.80;26.30
64843;DHT22;51310;52.198;5.422;2022-09-03T09:29:32;21.80;25.00
64843;DHT22;51310;52.198;5.422;2022-09-03T09:32:02;21.70;25.60
64843;DHT22;51310;52.198;5.422;2022-09-03T09:34:34;21.90;25.40
64843;DHT22;51310;52.198;5.422;2022-09-03T09:37:03;21.90;25.70
64843;DHT22;51310;52.198;5.422;2022-09-03T09:39:34;22.00;25.80
64843;DHT22;51310;52.198;5.422;2022-09-03T09:42:11;22.20;25.10
64843;DHT22;51310;52.198;5.422;2022-09-03T09:44:38;22.20;25.50
64843;DHT22;51310;52.198;5.422;2022-09-03T09:47:12;22.30;25.80
64843;DHT22;51310;52.198;5.422;2022-09-03T09:50:00;22.40;25.30
64843;DHT22;51310;52.198;5.422;2022-09-03T09:52:28;22.40;25.10
64843;DHT22;51310;52.198;5.422;2022-09-03T09:55:28;22.50;24.40
64843;DHT22;51310;52.198;5.422;2022-09-03T09:58:04;22.50;24.30
64843;DHT22;51310;52.198;5.422;2022-09-03T10:00:35;22.50;23.60
64843;DHT22;51310;52.198;5.422;2022-09-03T10:03:09;22.80;24.90
64843;DHT22;51310;52.198;5.422;2022-09-03T10:05:38;22.80;24.00
64843;DHT22;51310;52.198;5.422;2022-09-03T10:08:18;22.90;23.60
64843;DHT22;51310;52.198;5.422;2022-09-03T10:10:49;22.90;23.40
64843;DHT22;51310;52.198;5.422;2022-09-03T10:14:01;23.00;23.70
64843;DHT22;51310;52.198;5.422;2022-09-03T10:16:34;23.10;23.80
64843;DHT22;51310;52.198;5.422;2022-09-03T10:19:22;23.30;23.60
64843;DHT22;51310;52.198;5.422;2022-09-03T10:22:06;23.30;22.80
64843;DHT22;51310;52.198;5.422;2022-09-03T10:24:58;23.40;23.10
64843;DHT22;51310;52.198;5.422;2022-09-03T10:27:25;23.50;22.10
64843;DHT22;51310;52.198;5.422;2022-09-03T10:29:51;23.40;21.80
64843;DHT22;51310;52.198;5.422;2022-09-03T10:35:30;23.40;22.70
64843;DHT22;51310;52.198;5.422;2022-09-03T10:38:20;23.60;22.50
64843;DHT22;51310;52.198;5.422;2022-09-03T10:41:10;23.70;22.00
64843;DHT22;51310;52.198;5.422;2022-09-03T10:44:24;23.80;21.20
64843;DHT22;51310;52.198;5.422;2022-09-03T10:47:31;23.80;22.50
64843;DHT22;51310;52.198;5.422;2022-09-03T11:00:10;24.40;20.80
64843;DHT22;51310;52.198;5.422;2022-09-03T11:03:05;24.50;20.20
64843;DHT22;51310;52.198;5.422;2022-09-03T11:06:49;24.40;20.00
64843;DHT22;51310;52.198;5.422;2022-09-03T11:09:18;24.50;20.30
64843;DHT22;51310;52.198;5.422;2022-09-03T11:11:59;24.70;19.50
64843;DHT22;51310;52.198;5.422;2022-09-03T11:14:40;24.60;19.90
64843;DHT22;51310;52.198;5.422;2022-09-03T11:17:19;24.50;20.30
64843;DHT22;51310;52.198;5.422;2022-09-03T11:20:13;24.70;19.70
64843;DHT22;51310;52.198;5.422;2022-09-03T11:22:47;24.70;20.40
64843;DHT22;51310;52.198;5.422;2022-09-03T11:25:18;24.70;19.30
64843;DHT22;51310;52.198;5.422;2022-09-03T11:28:26;24.70;20.00
64843;DHT22;51310;52.198;5.422;2022-09-03T11:36:33;24.80;20.30
64843;DHT22;51310;52.198;5.422;2022-09-03T11:39:23;24.80;19.60
64843;DHT22;51310;52.198;5.422;2022-09-03T11:42:02;24.90;19.80
64843;DHT22;51310;52.198;5.422;2022-09-03T11:44:41;25.10;20.40
64843;DHT22;51310;52.198;5.422;2022-09-03T11:47:39;25.10;20.30
64843;DHT22;51310;52.198;5.422;2022-09-03T11:50:25;25.30;19.80
64843;DHT22;51310;52.198;5.422;2022-09-03T11:55:55;25.40;20.20
64843;DHT22;51310;52.198;5.422;2022-09-03T11:58:35;25.60;19.00
64843;DHT22;51310;52.198;5.422;2022-09-03T12:01:13;25.50;19.10
64843;DHT22;51310;52.198;5.422;2022-09-03T12:04:03;25.50;18.60
64843;DHT22;51310;52.198;5.422;2022-09-03T12:07:01;25.40;19.60
64843;DHT22;51310;52.198;5.422;2022-09-03T12:13:00;25.30;18.50
64843;DHT22;51310;52.198;5.422;2022-09-03T12:18:44;25.50;18.70
64843;DHT22;51310;52.198;5.422;2022-09-03T12:21:12;25.50;17.50
64843;DHT22;51310;52.198;5.422;2022-09-03T12:23:42;25.50;17.20
64843;DHT22;51310;52.198;5.422;2022-09-03T12:26:14;25.50;17.90
64843;DHT22;51310;52.198;5.422;2022-09-03T12:28:52;25.60;17.20
64843;DHT22;51310;52.198;5.422;2022-09-03T12:31:25;25.70;17.70
64843;DHT22;51310;52.198;5.422;2022-09-03T12:36:42;25.80;17.10
64843;DHT22;51310;52.198;5.422;2022-09-03T12:39:21;25.90;16.70
64843;DHT22;51310;52.198;5.422;2022-09-03T12:42:06;25.90;17.70
64843;DHT22;51310;52.198;5.422;2022-09-03T12:44:39;26.10;16.80
64843;DHT22;51310;52.198;5.422;2022-09-03T12:49:43;25.80;16.70
64843;DHT22;51310;52.198;5.422;2022-09-03T12:52:18;25.70;16.60
64843;DHT22;51310;52.198;5.422;2022-09-03T12:55:05;25.80;17.30
64843;DHT22;51310;52.198;5.422;2022-09-03T13:00:44;25.90;16.60
64843;DHT22;51310;52.198;5.422;2022-09-03T13:03:21;25.90;17.00
64843;DHT22;51310;52.198;5.422;2022-09-03T13:05:57;26.00;16.20
64843;DHT22;51310;52.198;5.422;2022-09-03T13:08:32;26.10;16.60
64843;DHT22;51310;52.198;5.422;2022-09-03T13:11:08;26.10;15.30
64843;DHT22;51310;52.198;5.422;2022-09-03T13:13:35;26.10;15.40
64843;DHT22;51310;52.198;5.422;2022-09-03T13:24:57;26.10;14.60
64843;DHT22;51310;52.198;5.422;2022-09-03T13:30:59;26.90;15.90
64843;DHT22;51310;52.198;5.422;2022-09-03T13:34:02;26.50;15.80
64843;DHT22;51310;52.198;5.422;2022-09-03T13:36:46;26.50;15.00
64843;DHT22;51310;52.198;5.422;2022-09-03T13:39:36;26.30;14.60
64843;DHT22;51310;52.198;5.422;2022-09-03T13:45:25;26.70;14.20
64843;DHT22;51310;52.198;5.422;2022-09-03T13:48:18;26.60;15.40
64843;DHT22;51310;52.198;5.422;2022-09-03T13:54:25;26.90;16.50
64843;DHT22;51310;52.198;5.422;2022-09-03T13:57:01;27.00;15.00
64843;DHT22;51310;52.198;5.422;2022-09-03T14:00:10;27.00;15.60
64843;DHT22;51310;52.198;5.422;2022-09-03T14:02:47;27.30;15.20
64843;DHT22;51310;52.198;5.422;2022-09-03T14:08:18;27.30;15.40
64843;DHT22;51310;52.198;5.422;2022-09-03T14:20:03;27.10;15.20
64843;DHT22;51310;52.198;5.422;2022-09-03T14:23:06;27.30;13.90
64843;DHT22;51310;52.198;5.422;2022-09-03T14:25:55;27.10;14.10
64843;DHT22;51310;52.198;5.422;2022-09-03T14:28:34;26.80;13.10
64843;DHT22;51310;52.198;5.422;2022-09-03T14:46:53;27.10;16.10
64843;DHT22;51310;52.198;5.422;2022-09-03T14:55:28;26.70;15.20
64843;DHT22;51310;52.198;5.422;2022-09-03T14:58:20;26.80;16.40
64843;DHT22;51310;52.198;5.422;2022-09-03T15:04:12;27.10;16.20
64843;DHT22;51310;52.198;5.422;2022-09-03T15:07:37;27.30;16.60
64843;DHT22;51310;52.198;5.422;2022-09-03T15:10:25;27.40;16.20
64843;DHT22;51310;52.198;5.422;2022-09-03T15:13:22;27.40;16.50
64843;DHT22;51310;52.198;5.422;2022-09-03T15:18:49;26.80;13.70
64843;DHT22;51310;52.198;5.422;2022-09-03T15:24:57;26.80;14.30
64843;DHT22;51310;52.198;5.422;2022-09-03T15:28:00;26.60;13.90
64843;DHT22;51310;52.198;5.422;2022-09-03T15:30:46;26.60;13.50
64843;DHT22;51310;52.198;5.422;2022-09-03T15:36:50;26.70;14.10
64843;DHT22;51310;52.198;5.422;2022-09-03T15:42:05;27.00;15.20
64843;DHT22;51310;52.198;5.422;2022-09-03T15:44:47;26.50;14.80
64843;DHT22;51310;52.198;5.422;2022-09-03T15:50:38;26.60;14.80
64843;DHT22;51310;52.198;5.422;2022-09-03T15:53:38;26.40;14.60
64843;DHT22;51310;52.198;5.422;2022-09-03T15:56:36;26.40;15.60
64843;DHT22;51310;52.198;5.422;2022-09-03T16:02:20;26.50;14.70
64843;DHT22;51310;52.198;5.422;2022-09-03T16:15:38;26.50;16.10
64843;DHT22;51310;52.198;5.422;2022-09-03T16:18:37;26.30;15.40
64843;DHT22;51310;52.198;5.422;2022-09-03T16:21:19;26.40;15.80
64843;DHT22;51310;52.198;5.422;2022-09-03T16:23:58;26.30;15.40
64843;DHT22;51310;52.198;5.422;2022-09-03T16:27:14;26.30;16.00
64843;DHT22;51310;52.198;5.422;2022-09-03T16:30:08;26.30;15.00
64843;DHT22;51310;52.198;5.422;2022-09-03T16:32:48;26.30;15.00
64843;DHT22;51310;52.198;5.422;2022-09-03T16:35:50;26.20;15.10
64843;DHT22;51310;52.198;5.422;2022-09-03T16:38:46;26.20;15.80
64843;DHT22;51310;52.198;5.422;2022-09-03T16:45:11;25.80;15.80
64843;DHT22;51310;52.198;5.422;2022-09-03T16:51:21;25.70;17.00
64843;DHT22;51310;52.198;5.422;2022-09-03T16:57:49;25.60;15.00
64843;DHT22;51310;52.198;5.422;2022-09-03T17:10:27;25.50;16.20
64843;DHT22;51310;52.198;5.422;2022-09-03T17:13:37;25.50;16.90
64843;DHT22;51310;52.198;5.422;2022-09-03T17:25:01;26.00;16.80
64843;DHT22;51310;52.198;5.422;2022-09-03T17:31:16;26.20;17.30
64843;DHT22;51310;52.198;5.422;2022-09-03T17:34:56;26.30;17.60
64843;DHT22;51310;52.198;5.422;2022-09-03T17:40:26;25.90;17.10
64843;DHT22;51310;52.198;5.422;2022-09-03T17:46:25;25.70;18.00
64843;DHT22;51310;52.198;5.422;2022-09-03T17:49:06;25.40;18.40
64843;DHT22;51310;52.198;5.422;2022-09-03T17:51:50;25.30;18.80
64843;DHT22;51310;52.198;5.422;2022-09-03T17:54:42;25.10;20.10
64843;DHT22;51310;52.198;5.422;2022-09-03T17:57:19;24.90;20.30
64843;DHT22;51310;52.198;5.422;2022-09-03T18:02:43;24.40;21.20
64843;DHT22;51310;52.198;5.422;2022-09-03T18:05:29;24.30;21.80
64843;DHT22;51310;52.198;5.422;2022-09-03T18:08:52;24.20;21.60
64843;DHT22;51310;52.198;5.422;2022-09-03T18:11:50;24.20;22.80
64843;DHT22;51310;52.198;5.422;2022-09-03T18:14:55;23.90;22.20
64843;DHT22;51310;52.198;5.422;2022-09-03T18:17:44;23.80;22.30
64843;DHT22;51310;52.198;5.422;2022-09-03T18:20:20;23.70;23.20
64843;DHT22;51310;52.198;5.422;2022-09-03T18:23:16;23.60;26.70
64843;DHT22;51310;52.198;5.422;2022-09-03T18:26:30;23.50;25.60
64843;DHT22;51310;52.198;5.422;2022-09-03T18:29:35;23.40;25.50
64843;DHT22;51310;52.198;5.422;2022-09-03T18:32:22;23.30;25.60
64843;DHT22;51310;52.198;5.422;2022-09-03T18:35:08;23.10;25.70
64843;DHT22;51310;52.198;5.422;2022-09-03T18:37:52;23.10;24.70
64843;DHT22;51310;52.198;5.422;2022-09-03T18:45:02;22.90;26.00
64843;DHT22;51310;52.198;5.422;2022-09-03T18:48:16;22.80;26.40
64843;DHT22;51310;52.198;5.422;2022-09-03T18:51:51;22.70;25.90
64843;DHT22;51310;52.198;5.422;2022-09-03T18:58:39;22.60;26.10
64843;DHT22;51310;52.198;5.422;2022-09-03T19:01:37;22.60;26.70
64843;DHT22;51310;52.198;5.422;2022-09-03T19:07:57;22.20;27.00
64843;DHT22;51310;52.198;5.422;2022-09-03T19:11:23;22.20;27.30
64843;DHT22;51310;52.198;5.422;2022-09-03T19:17:35;22.10;27.50
64843;DHT22;51310;52.198;5.422;2022-09-03T19:24:06;22.00;27.70
64843;DHT22;51310;52.198;5.422;2022-09-03T19:27:08;22.00;28.10
64843;DHT22;51310;52.198;5.422;2022-09-03T19:30:32;21.90;28.30
64843;DHT22;51310;52.198;5.422;2022-09-03T19:37:12;21.60;29.30
64843;DHT22;51310;52.198;5.422;2022-09-03T19:47:11;21.50;29.90
64843;DHT22;51310;52.198;5.422;2022-09-03T19:50:21;21.30;30.20
64843;DHT22;51310;52.198;5.422;2022-09-03T19:53:14;21.30;30.50
64843;DHT22;51310;52.198;5.422;2022-09-03T19:56:05;21.30;32.20
64843;DHT22;51310;52.198;5.422;2022-09-03T19:59:05;21.30;31.30
64843;DHT22;51310;52.198;5.422;2022-09-03T20:01:57;21.10;31.00
64843;DHT22;51310;52.198;5.422;2022-09-03T20:04:57;20.90;31.50
64843;DHT22;51310;52.198;5.422;2022-09-03T20:07:49;21.10;31.90
64843;DHT22;51310;52.198;5.422;2022-09-03T20:10:38;21.00;32.50
64843;DHT22;51310;52.198;5.422;2022-09-03T20:19:07;20.90;32.60
64843;DHT22;51310;52.198;5.422;2022-09-03T20:22:14;20.90;32.00
64843;DHT22;51310;52.198;5.422;2022-09-03T20:32:07;20.70;34.00
64843;DHT22;51310;52.198;5.422;2022-09-03T20:34:50;20.70;34.20
64843;DHT22;51310;52.198;5.422;2022-09-03T20:37:36;20.50;34.20
64843;DHT22;51310;52.198;5.422;2022-09-03T20:40:25;20.60;34.70
64843;DHT22;51310;52.198;5.422;2022-09-03T20:52:20;20.20;34.70
64843;DHT22;51310;52.198;5.422;2022-09-03T20:55:03;20.20;34.90
64843;DHT22;51310;52.198;5.422;2022-09-03T20:57:47;20.20;36.50
64843;DHT22;51310;52.198;5.422;2022-09-03T21:00:51;20.00;36.80
64843;DHT22;51310;52.198;5.422;2022-09-03T21:06:25;19.90;37.00
64843;DHT22;51310;52.198;5.422;2022-09-03T21:09:31;19.90;37.30
64843;DHT22;51310;52.198;5.422;2022-09-03T21:15:21;19.80;38.00
64843;DHT22;51310;52.198;5.422;2022-09-03T21:18:38;19.80;38.20
64843;DHT22;51310;52.198;5.422;2022-09-03T21:24:24;19.70;38.50
64843;DHT22;51310;52.198;5.422;2022-09-03T21:27:15;19.70;37.90
64843;DHT22;51310;52.198;5.422;2022-09-03T21:30:08;19.60;37.90
64843;DHT22;51310;52.198;5.422;2022-09-03T21:38:10;19.50;38.20
64843;DHT22;51310;52.198;5.422;2022-09-03T21:46:26;19.60;39.10
64843;DHT22;51310;52.198;5.422;2022-09-03T21:49:06;19.60;39.10
64843;DHT22;51310;52.198;5.422;2022-09-03T21:51:56;19.60;39.00
64843;DHT22;51310;52.198;5.422;2022-09-03T21:54:30;19.50;39.10